Time;durP1;ratioP1;P1;durP2;ratioP2;P2;SDS_P1;SDS_P2;PMS_P1;PMS_P2;Temp;Humidity;BMP_temperature;BMP_pressure;BME280_temperature;BME280_humidity;BME280_pressure;Samples;Min_cycle;Max_cycle;Signal;HPM_P1;HPM_P2
2023/01/10 00:01:26;;;;;;;28.30;18.17;;;;;;;3.26;100.00;91990.03;5088594;28;20220;-77
2023/01/10 00:03:51;;;;;;;33.60;21.37;;;;;;;3.21;100.00;91992.59;5088702;28;20180;-77
2023/01/10 00:06:17;;;;;;;26.80;19.27;;;;;;;3.17;100.00;91981.22;5088218;28;20204;-77
2023/01/10 00:08:42;;;;;;;22.50;19.27;;;;;;;2.98;100.00;91988.59;5092161;28;20193;-77
2023/01/10 00:13:52;;;;;;;28.77;20.20;;;;;;;2.94;100.00;91986.75;5092514;28;20248;-77
2023/01/10 00:16:18;;;;;;;25.27;18.30;;;;;;;3.21;100.00;91977.91;5089763;28;20287;-77
2023/01/10 00:18:43;;;;;;;28.40;17.87;;;;;;;2.78;100.00;91938.69;5091858;28;20215;-78
2023/01/10 00:21:09;;;;;;;30.87;20.00;;;;;;;3.03;100.00;91995.56;5091668;28;20295;-78
2023/01/10 00:23:34;;;;;;;23.10;19.10;;;;;;;2.90;100.00;91977.94;5091830;28;20188;-77
2023/01/10 00:26:00;;;;;;;27.07;18.20;;;;;;;2.93;100.00;92039.31;5091647;28;20212;-77
2023/01/10 00:28:25;;;;;;;28.60;18.20;;;;;;;3.14;100.00;92010.09;5092102;28;20192;-78
2023/01/10 00:30:53;;;;;;;24.43;19.33;;;;;;;2.90;100.00;91947.00;5091958;28;20238;-77
2023/01/10 00:33:19;;;;;;;27.47;20.03;;;;;;;2.71;100.00;91979.34;5091555;28;20185;-77
2023/01/10 00:35:46;;;;;;;30.23;19.13;;;;;;;2.70;100.00;91957.19;5091174;28;20224;-77
2023/01/10 00:38:12;;;;;;;25.10;18.63;;;;;;;3.07;100.00;91957.94;5091146;28;20185;-77
2023/01/10 00:40:38;;;;;;;21.67;17.03;;;;;;;3.02;100.00;91979.31;5093975;28;20248;-78
2023/01/10 00:45:48;;;;;;;20.60;17.10;;;;;;;2.92;100.00;91984.44;5090933;28;20228;-77
2023/01/10 00:48:14;;;;;;;25.83;18.07;;;;;;;3.05;100.00;91957.44;5091597;28;20189;-77
2023/01/10 00:50:40;;;;;;;20.43;17.83;;;;;;;3.10;100.00;91960.81;5089337;28;20232;-77
2023/01/10 00:53:06;;;;;;;30.10;18.83;;;;;;;2.95;100.00;91967.69;5091272;28;20282;-77
2023/01/10 00:55:33;;;;;;;28.97;19.93;;;;;;;2.69;100.00;91948.69;5092386;28;20208;-78
2023/01/10 00:57:59;;;;;;;34.13;20.43;;;;;;;2.93;100.00;91939.56;5091615;28;20200;-80
2023/01/10 01:00:24;;;;;;;25.13;18.73;;;;;;;3.08;100.00;91949.22;5091423;28;20214;-79
2023/01/10 01:02:50;;;;;;;26.47;18.73;;;;;;;2.85;100.00;91926.34;5090514;28;20165;-81
2023/01/10 01:05:16;;;;;;;30.30;19.03;;;;;;;2.61;100.00;91913.09;5090647;28;20232;-80
2023/01/10 01:07:42;;;;;;;28.30;20.13;;;;;;;2.65;100.00;91926.22;5092099;28;20265;-80
2023/01/10 01:10:26;;;;;;;34.83;23.53;;;;;;;2.48;100.00;91939.25;5090378;28;20223;-80
2023/01/10 01:12:54;;;;;;;32.53;18.67;;;;;;;2.41;100.00;91925.78;5090991;28;20275;-80
2023/01/10 01:15:20;;;;;;;27.03;19.40;;;;;;;2.22;100.00;91926.41;5090888;28;20212;-80
2023/01/10 01:17:46;;;;;;;33.10;19.27;;;;;;;2.47;100.00;91932.56;5091951;28;20196;-80
2023/01/10 01:20:13;;;;;;;33.07;19.40;;;;;;;2.43;100.00;91983.00;5089473;28;20284;-80
2023/01/10 01:22:38;;;;;;;26.47;20.53;;;;;;;2.60;100.00;91957.13;5091281;28;20898;-80
2023/01/10 01:25:04;;;;;;;26.57;20.53;;;;;;;2.74;100.00;91950.53;5090746;28;20223;-79
2023/01/10 01:27:31;;;;;;;31.70;20.10;;;;;;;2.84;100.00;91942.84;5091251;28;20181;-80
2023/01/10 01:29:56;;;;;;;26.03;19.20;;;;;;;2.68;100.00;91933.47;5093232;28;20229;-80
2023/01/10 01:32:22;;;;;;;25.47;19.03;;;;;;;2.97;100.00;91952.75;5090847;28;20245;-80
2023/01/10 01:34:48;;;;;;;25.63;18.77;;;;;;;2.47;100.00;91875.09;5089047;28;20274;-80
2023/01/10 01:37:13;;;;;;;29.33;20.13;;;;;;;2.74;100.00;91935.06;5090517;28;20252;-80
2023/01/10 01:39:39;;;;;;;28.03;19.50;;;;;;;2.15;100.00;91867.41;5089627;28;20243;-81
2023/01/10 01:42:05;;;;;;;25.67;19.17;;;;;;;2.55;100.00;91954.50;5091553;28;20189;-79
2023/01/10 01:44:35;;;;;;;24.17;18.40;;;;;;;2.61;100.00;91943.22;5090212;28;20240;-79
2023/01/10 01:47:11;;;;;;;24.83;19.37;;;;;;;2.51;100.00;91940.56;5090238;28;20201;-80
2023/01/10 01:49:39;;;;;;;27.03;20.00;;;;;;;2.42;100.00;91913.69;5088935;28;20929;-80
2023/01/10 01:52:12;;;;;;;28.80;19.90;;;;;;;2.67;100.00;91944.81;5090508;28;20224;-80
2023/01/10 01:54:38;;;;;;;27.03;19.07;;;;;;;2.62;100.00;91909.47;5088534;28;20237;-80
2023/01/10 01:57:12;;;;;;;25.77;18.33;;;;;;;2.70;100.00;91939.16;5090379;28;20199;-80
2023/01/10 01:59:42;;;;;;;22.03;17.80;;;;;;;2.45;100.00;91885.66;5090595;28;20315;-80
2023/01/10 02:02:13;;;;;;;24.87;19.03;;;;;;;2.56;100.00;91918.19;5090121;28;20184;-80
2023/01/10 02:05:08;;;;;;;26.97;18.23;;;;;;;2.70;100.00;91913.38;5089056;28;20224;-81
2023/01/10 02:07:40;;;;;;;22.23;17.63;;;;;;;2.74;100.00;91868.06;5087795;28;20218;-80
2023/01/10 02:10:22;;;;;;;19.83;15.37;;;;;;;2.99;100.00;91891.38;5089522;28;20292;-81
2023/01/10 02:12:50;;;;;;;19.20;15.23;;;;;;;3.26;100.00;91876.56;5089858;28;20255;-79
2023/01/10 02:15:17;;;;;;;19.60;17.53;;;;;;;3.38;100.00;91864.22;5091696;28;20227;-80
2023/01/10 02:17:45;;;;;;;18.50;16.53;;;;;;;2.87;100.00;91801.41;5089012;28;20184;-81
2023/01/10 02:20:12;;;;;;;18.63;16.07;;;;;;;2.48;100.00;91807.13;5089702;28;20309;-76
2023/01/10 02:23:02;;;;;;;22.83;16.67;;;;;;;2.73;100.00;91866.50;5091059;28;20199;-76
2023/01/10 02:26:17;;;;;;;24.40;17.10;;;;;;;2.10;100.00;91831.31;5088637;28;20784;-77
2023/01/10 02:29:11;;;;;;;23.90;18.30;;;;;;;2.53;100.00;91874.13;5057111;28;20195;-76
2023/01/10 02:32:07;;;;;;;23.23;17.77;;;;;;;2.69;100.00;91875.78;5031325;28;20217;-76
2023/01/10 02:34:51;;;;;;;22.73;18.83;;;;;;;2.45;100.00;91874.56;5068416;28;20852;-77
2023/01/10 02:37:19;;;;;;;20.67;16.57;;;;;;;2.51;100.00;91879.53;5068696;28;20244;-76
2023/01/10 02:39:58;;;;;;;24.23;18.60;;;;;;;2.47;100.00;91878.47;5068215;28;20239;-75
2023/01/10 02:42:41;;;;;;;23.23;18.50;;;;;;;2.80;100.00;91877.38;5069803;28;20208;-75
2023/01/10 02:45:16;;;;;;;26.13;17.67;;;;;;;2.66;100.00;91877.03;5080294;28;20240;-76
2023/01/10 02:47:42;;;;;;;25.23;18.57;;;;;;;2.41;100.00;91835.66;5089215;28;20182;-77
2023/01/10 02:50:40;;;;;;;23.47;18.57;;;;;;;2.68;100.00;91887.09;5089166;28;20616;-76
2023/01/10 02:53:17;;;;;;;24.37;18.80;;;;;;;2.58;100.00;91858.69;5088307;28;20223;-76
2023/01/10 02:56:11;;;;;;;22.20;18.23;;;;;;;2.78;100.00;91882.78;5089484;28;20228;-77
2023/01/10 02:58:52;;;;;;;20.47;17.47;;;;;;;2.86;100.00;91887.44;5088143;28;20212;-76
2023/01/10 03:01:45;;;;;;;19.90;17.77;;;;;;;2.59;100.00;91888.56;5089306;28;20240;-76
2023/01/10 03:04:32;;;;;;;18.97;16.93;;;;;;;2.70;100.00;91885.03;5088922;28;20262;-76
2023/01/10 03:07:07;;;;;;;22.07;17.70;;;;;;;2.64;100.00;91889.41;5089935;28;20188;-76
2023/01/10 03:09:34;;;;;;;22.83;18.93;;;;;;;2.51;100.00;91904.50;5088419;28;20249;-76
2023/01/10 03:12:13;;;;;;;21.27;17.13;;;;;;;2.61;100.00;91900.19;5089334;28;20236;-76
2023/01/10 03:14:41;;;;;;;24.10;18.50;;;;;;;2.15;100.00;91864.06;5088420;28;20242;-76
2023/01/10 03:17:09;;;;;;;23.87;17.60;;;;;;;2.51;100.00;91889.81;5088671;28;20195;-76
2023/01/10 03:19:46;;;;;;;24.07;16.43;;;;;;;2.16;100.00;91855.31;5088935;28;20221;-77
2023/01/10 03:22:13;;;;;;;22.13;18.10;;;;;;;2.34;100.00;91899.47;5087824;28;20180;-77
2023/01/10 03:24:41;;;;;;;24.00;17.63;;;;;;;2.38;100.00;91887.66;5088530;28;20226;-76
2023/01/10 03:27:20;;;;;;;23.60;17.63;;;;;;;2.47;100.00;91882.84;5090370;28;20177;-76
2023/01/10 03:29:54;;;;;;;22.63;17.67;;;;;;;2.76;100.00;91902.09;5087496;28;20279;-76
2023/01/10 03:32:23;;;;;;;22.07;15.40;;;;;;;2.77;100.00;91901.06;5088472;28;20200;-76
2023/01/10 03:34:49;;;;;;;24.83;18.20;;;;;;;2.57;100.00;91901.72;5087043;28;20263;-76
2023/01/10 03:37:29;;;;;;;24.77;18.73;;;;;;;2.55;100.00;91914.06;5089599;28;20181;-76
2023/01/10 03:40:16;;;;;;;24.43;17.73;;;;;;;2.61;100.00;91904.56;5087916;28;20255;-76
2023/01/10 03:46:09;;;;;;;28.50;19.00;;;;;;;2.87;100.00;91891.59;5092848;28;20238;-76
2023/01/10 03:48:38;;;;;;;25.73;17.50;;;;;;;3.03;100.00;91900.19;5092502;28;20248;-76
2023/01/10 03:51:06;;;;;;;24.47;18.10;;;;;;;3.02;100.00;91901.19;5093279;28;20273;-84
2023/01/10 03:53:33;;;;;;;27.20;18.50;;;;;;;2.63;100.00;91861.31;5092109;28;20203;-82
2023/01/10 03:55:58;;;;;;;24.23;17.70;;;;;;;2.11;100.00;91796.84;5091160;28;20257;-79
2023/01/10 03:58:25;;;;;;;22.67;18.40;;;;;;;2.82;100.00;91901.88;5093753;28;20185;-80
2023/01/10 04:00:50;;;;;;;23.57;18.90;;;;;;;2.99;100.00;91888.81;5092854;28;20225;-79
2023/01/10 04:03:15;;;;;;;23.03;16.93;;;;;;;2.82;100.00;91844.38;5094600;28;20176;-79
2023/01/10 04:05:41;;;;;;;26.03;18.47;;;;;;;2.82;100.00;91824.56;5093043;28;20217;-79
2023/01/10 04:08:07;;;;;;;22.63;17.50;;;;;;;2.86;100.00;91851.38;5092594;28;20268;-80
2023/01/10 04:10:32;;;;;;;20.63;18.50;;;;;;;2.74;100.00;91812.16;5092455;28;20224;-80
2023/01/10 04:13:00;;;;;;;26.83;19.50;;;;;;;2.86;100.00;91832.56;5093330;28;20218;-79
2023/01/10 04:15:25;;;;;;;26.73;18.37;;;;;;;2.92;100.00;91832.34;5092181;28;20224;-80
2023/01/10 04:17:51;;;;;;;22.23;17.83;;;;;;;2.89;100.00;91825.13;5092570;28;20177;-80
2023/01/10 04:20:16;;;;;;;23.37;17.50;;;;;;;2.77;100.00;91826.34;5092220;28;20221;-80
2023/01/10 04:22:45;;;;;;;24.83;18.57;;;;;;;2.69;100.00;91821.66;5095052;28;20189;-80
2023/01/10 04:25:10;;;;;;;18.90;16.83;;;;;;;2.35;100.00;91808.31;5091190;28;20212;-76
2023/01/10 04:27:36;;;;;;;17.73;15.90;;;;;;;2.68;100.00;91884.50;5092373;28;20199;-75
2023/01/10 04:30:02;;;;;;;22.00;16.10;;;;;;;2.87;100.00;91870.19;5092163;28;20235;-75
2023/01/10 04:32:28;;;;;;;18.47;16.33;;;;;;;3.38;100.00;91887.44;5091660;28;20208;-80
2023/01/10 04:34:53;;;;;;;17.90;16.20;;;;;;;2.85;100.00;91818.13;5091881;28;20244;-79
2023/01/10 04:37:18;;;;;;;17.23;15.40;;;;;;;3.03;100.00;91900.97;5092077;28;20267;-80
2023/01/10 04:39:44;;;;;;;19.47;16.83;;;;;;;2.98;100.00;91895.00;5092402;28;20245;-79
2023/01/10 04:42:10;;;;;;;19.27;16.13;;;;;;;3.00;100.00;91887.81;5092199;28;20203;-80
2023/01/10 04:44:35;;;;;;;17.80;15.27;;;;;;;2.78;100.00;91835.63;5091312;28;20232;-81
2023/01/10 04:47:00;;;;;;;17.23;15.43;;;;;;;3.24;100.00;91857.97;5092253;28;20196;-81
2023/01/10 04:49:26;;;;;;;16.90;14.53;;;;;;;3.60;100.00;91871.78;5091534;28;20303;-80
2023/01/10 04:51:51;;;;;;;19.53;16.83;;;;;;;3.35;100.00;91903.41;5092063;28;20224;-74
2023/01/10 04:54:21;;;;;;;17.63;15.83;;;;;;;3.37;100.00;91893.63;5088808;28;20232;-76
2023/01/10 04:56:46;;;;;;;19.43;17.40;;;;;;;3.42;100.00;91893.66;5087900;28;20185;-75
2023/01/10 04:59:12;;;;;;;18.97;17.03;;;;;;;3.28;100.00;91877.84;5090643;28;20802;-82
2023/01/10 05:01:37;;;;;;;17.47;14.97;;;;;;;3.47;100.00;91873.03;5090029;28;20188;-78
2023/01/10 05:04:04;;;;;;;16.97;15.13;;;;;;;3.40;100.00;91887.97;5089986;28;21062;-79
2023/01/10 05:06:30;;;;;;;21.40;17.00;;;;;;;3.03;100.00;91872.63;5090323;28;20185;-78
2023/01/10 05:08:56;;;;;;;18.67;16.70;;;;;;;3.49;100.00;91855.50;5089492;28;20221;-77
2023/01/10 05:11:21;;;;;;;19.23;17.07;;;;;;;3.24;100.00;91865.72;5087990;28;20335;-74
2023/01/10 05:13:46;;;;;;;24.00;19.00;;;;;;;2.99;100.00;91861.25;5088990;28;20191;-77
2023/01/10 05:16:12;;;;;;;22.77;17.73;;;;;;;2.83;100.00;91836.41;5089057;28;20185;-76
2023/01/10 05:18:37;;;;;;;23.77;17.37;;;;;;;2.69;100.00;91806.22;5088589;28;20204;-76
2023/01/10 05:21:06;;;;;;;22.40;17.30;;;;;;;2.69;100.00;91812.13;5089940;28;20224;-82
2023/01/10 05:23:32;;;;;;;27.70;18.07;;;;;;;2.92;100.00;91821.25;5091147;28;20192;-77
2023/01/10 05:26:05;;;;;;;22.67;16.67;;;;;;;2.84;100.00;91806.28;5088839;28;20225;-76
2023/01/10 05:28:30;;;;;;;20.73;16.60;;;;;;;2.82;100.00;91792.84;5090287;28;20305;-75
2023/01/10 05:30:55;;;;;;;23.70;18.17;;;;;;;2.90;100.00;91803.47;5087775;28;20238;-78
2023/01/10 05:33:21;;;;;;;19.17;17.20;;;;;;;3.20;100.00;91846.63;5089518;28;20238;-76
2023/01/10 05:35:46;;;;;;;19.97;16.90;;;;;;;3.21;100.00;91861.06;5085250;28;20231;-77
2023/01/10 05:38:11;;;;;;;20.73;18.47;;;;;;;3.03;100.00;91882.16;5089772;28;20188;-87
2023/01/10 05:40:37;;;;;;;26.80;19.43;;;;;;;2.98;100.00;91885.47;5090354;28;20239;-85
2023/01/10 05:43:02;;;;;;;21.23;18.00;;;;;;;3.09;100.00;91875.97;5087172;28;20193;-85
2023/01/10 05:45:27;;;;;;;25.23;17.63;;;;;;;3.03;100.00;91882.94;5090195;28;20244;-85
2023/01/10 05:47:53;;;;;;;28.27;20.50;;;;;;;2.96;100.00;91871.28;5090176;28;20180;-85
2023/01/10 05:50:18;;;;;;;24.47;17.27;;;;;;;3.16;100.00;91867.00;5089667;28;20236;-86
2023/01/10 05:52:44;;;;;;;22.07;17.90;;;;;;;3.11;100.00;91866.19;5089830;28;20184;-86
2023/01/10 05:55:09;;;;;;;23.70;18.53;;;;;;;3.08;100.00;91862.31;5088280;28;20243;-86
2023/01/10 05:57:34;;;;;;;22.00;19.20;;;;;;;3.30;100.00;91865.50;5089306;28;20172;-86
2023/01/10 05:59:59;;;;;;;23.50;18.60;;;;;;;3.33;100.00;91871.97;5088605;28;20216;-85
2023/01/10 06:02:25;;;;;;;26.20;19.23;;;;;;;3.16;100.00;91868.78;5088212;28;20241;-85
2023/01/10 06:04:51;;;;;;;25.43;19.73;;;;;;;3.15;100.00;91869.81;5087948;28;20250;-85
2023/01/10 06:07:16;;;;;;;21.70;18.67;;;;;;;3.37;100.00;91882.53;5089695;28;20214;-85
2023/01/10 06:09:42;;;;;;;25.03;17.50;;;;;;;3.29;100.00;91878.66;5089443;28;20248;-85
2023/01/10 06:12:07;;;;;;;19.77;17.27;;;;;;;3.19;100.00;91866.47;5087546;28;20216;-84
2023/01/10 06:14:32;;;;;;;23.30;18.43;;;;;;;3.36;100.00;91874.03;5086897;28;20317;-85
2023/01/10 06:16:58;;;;;;;19.13;16.73;;;;;;;3.39;100.00;91876.13;5089313;28;20187;-85
2023/01/10 06:19:23;;;;;;;20.40;16.07;;;;;;;3.33;100.00;91856.50;5088467;28;20216;-84
2023/01/10 06:21:48;;;;;;;19.57;17.53;;;;;;;3.54;100.00;91878.72;5088701;28;20212;-85
2023/01/10 06:24:14;;;;;;;20.83;17.63;;;;;;;3.47;100.00;91854.97;5086909;28;20220;-84
2023/01/10 06:26:39;;;;;;;21.10;17.77;;;;;;;3.52;100.00;91847.25;5089726;28;20185;-84
2023/01/10 06:29:05;;;;;;;19.70;17.67;;;;;;;3.64;100.00;91852.19;5089296;28;20301;-83
2023/01/10 06:31:30;;;;;;;21.87;18.13;;;;;;;3.80;100.00;91875.19;5088946;28;20255;-85
2023/01/10 06:33:55;;;;;;;21.30;18.47;;;;;;;3.67;100.00;91869.75;5087597;28;20184;-82
2023/01/10 06:36:21;;;;;;;25.57;19.80;;;;;;;3.62;100.00;91870.50;5089040;28;20189;-85
2023/01/10 06:38:46;;;;;;;21.00;18.80;;;;;;;3.63;100.00;91874.63;5087904;28;20276;-82
2023/01/10 06:41:12;;;;;;;22.67;18.07;;;;;;;3.70;100.00;91861.47;5087380;28;20773;-86
2023/01/10 06:43:45;;;;;;;19.87;17.50;;;;;;;3.80;100.00;91877.75;5088585;28;20208;-84
2023/01/10 06:46:12;;;;;;;24.83;19.00;;;;;;;3.42;100.00;91862.72;5087256;28;20216;-84
2023/01/10 06:48:38;;;;;;;21.63;19.27;;;;;;;3.25;100.00;91852.56;5087262;28;20188;-84
2023/01/10 06:51:04;;;;;;;24.10;20.10;;;;;;;3.30;100.00;91882.75;5086767;28;20240;-83
2023/01/10 06:53:30;;;;;;;24.60;18.73;;;;;;;3.48;100.00;91863.50;5088082;28;20172;-84
2023/01/10 06:55:59;;;;;;;24.40;19.40;;;;;;;3.68;100.00;91884.97;5087877;28;20217;-84
2023/01/10 06:58:24;;;;;;;22.87;17.63;;;;;;;3.50;100.00;91848.53;5086392;28;20180;-84
2023/01/10 07:00:50;;;;;;;24.50;18.03;;;;;;;3.65;100.00;91866.63;5087283;28;20231;-84
2023/01/10 07:03:16;;;;;;;24.63;20.27;;;;;;;3.46;100.00;91868.13;5086933;28;20185;-85
2023/01/10 07:05:41;;;;;;;25.70;20.13;;;;;;;3.80;100.00;91862.28;5087359;28;20224;-85
2023/01/10 07:08:06;;;;;;;23.30;18.83;;;;;;;3.77;100.00;91849.88;5088231;28;20215;-85
2023/01/10 07:10:32;;;;;;;25.33;20.37;;;;;;;3.86;100.00;91861.25;5086223;28;20227;-86
2023/01/10 07:12:58;;;;;;;25.57;18.90;;;;;;;3.82;100.00;91854.28;5089211;28;20188;-84
2023/01/10 07:15:24;;;;;;;23.97;18.33;;;;;;;3.98;100.00;91864.38;5087745;28;20229;-82
2023/01/10 07:17:49;;;;;;;22.80;18.53;;;;;;;3.87;100.00;91836.22;5086993;28;20195;-86
2023/01/10 07:20:15;;;;;;;24.77;20.07;;;;;;;3.91;100.00;91843.19;5087858;28;20233;-86
2023/01/10 07:22:40;;;;;;;27.17;20.23;;;;;;;3.88;100.00;91835.97;5088624;28;20184;-86
2023/01/10 07:25:06;;;;;;;31.57;24.17;;;;;;;4.01;100.00;91832.88;5086604;28;20241;-86
2023/01/10 07:27:32;;;;;;;43.10;29.07;;;;;;;3.82;100.00;91842.16;5087033;28;20196;-85
2023/01/10 07:29:58;;;;;;;42.53;27.97;;;;;;;3.87;100.00;91837.00;5088054;28;20266;-87
2023/01/10 07:32:24;;;;;;;40.80;27.07;;;;;;;3.85;100.00;91802.91;5091224;28;20213;-85
2023/01/10 07:34:49;;;;;;;33.17;24.50;;;;;;;3.57;100.00;91816.31;5087858;28;20243;-86
2023/01/10 07:37:15;;;;;;;29.93;21.90;;;;;;;3.28;100.00;91800.50;5086959;28;20185;-86
2023/01/10 07:39:41;;;;;;;33.03;23.50;;;;;;;3.43;100.00;91797.19;5086063;28;20242;-83
2023/01/10 07:42:09;;;;;;;29.97;25.20;;;;;;;3.60;100.00;91807.25;5085072;28;20232;-85
2023/01/10 07:44:35;;;;;;;37.57;24.20;;;;;;;3.56;100.00;91796.69;5088141;28;20228;-86
2023/01/10 07:47:00;;;;;;;41.67;27.63;;;;;;;3.75;100.00;91794.41;5088043;28;20188;-85
2023/01/10 07:49:25;;;;;;;39.27;24.43;;;;;;;3.68;100.00;91794.66;5087596;28;20231;-86
2023/01/10 07:51:51;;;;;;;36.00;25.47;;;;;;;4.03;100.00;91814.56;5090151;28;20224;-87
2023/01/10 07:54:16;;;;;;;29.20;22.97;;;;;;;4.09;100.00;91788.47;5090934;28;20251;-85
2023/01/10 07:56:41;;;;;;;28.70;22.20;;;;;;;4.19;100.00;91805.75;5091132;28;20181;-85
2023/01/10 07:59:07;;;;;;;31.63;23.40;;;;;;;4.06;100.00;91783.81;5090409;28;20233;-83
2023/01/10 08:01:32;;;;;;;31.13;22.93;;;;;;;4.32;100.00;91811.19;5087431;28;20185;-82
2023/01/10 08:03:58;;;;;;;34.33;23.70;;;;;;;4.49;100.00;91809.09;5088882;28;20512;-74
2023/01/10 08:06:23;;;;;;;29.73;22.57;;;;;;;4.21;100.00;91824.34;5085474;28;20198;-73
2023/01/10 08:08:48;;;;;;;25.67;19.87;;;;;;;4.37;100.00;91816.31;5088009;28;20199;-74
2023/01/10 08:11:14;;;;;;;26.73;19.57;;;;;;;4.21;100.00;91812.22;5088300;28;20200;-74
2023/01/10 08:13:39;;;;;;;26.87;19.20;;;;;;;4.35;100.00;91815.81;5087741;28;20193;-75
2023/01/10 08:16:06;;;;;;;36.53;21.57;;;;;;;4.37;100.00;91816.31;5084806;28;20224;-76
2023/01/10 08:18:32;;;;;;;35.57;24.00;;;;;;;4.38;100.00;91811.94;5086148;28;20189;-76
2023/01/10 08:20:57;;;;;;;30.50;23.80;;;;;;;4.48;100.00;91807.53;5084513;28;20239;-75
2023/01/10 08:23:23;;;;;;;34.40;23.90;;;;;;;4.54;100.00;91796.16;5087028;28;20189;-75
2023/01/10 08:25:50;;;;;;;27.13;21.27;;;;;;;4.67;100.00;91805.16;5085421;28;20859;-76
2023/01/10 08:28:15;;;;;;;23.30;19.63;;;;;;;4.58;100.00;91791.22;5087432;28;20188;-75
2023/01/10 08:30:41;;;;;;;22.70;18.63;;;;;;;4.68;100.00;91786.06;5089868;28;20232;-75
2023/01/10 08:33:07;;;;;;;22.53;16.37;;;;;;;4.67;100.00;91790.44;5090946;28;20189;-75
2023/01/10 08:35:41;;;;;;;19.83;17.20;;;;;;;4.70;100.00;91784.75;5087384;28;20280;-76
2023/01/10 08:38:07;;;;;;;23.13;19.13;;;;;;;4.48;100.00;91786.84;5088737;28;20227;-72
2023/01/10 08:40:33;;;;;;;23.37;19.70;;;;;;;4.44;100.00;91779.88;5088435;28;20221;-73
2023/01/10 08:43:00;;;;;;;24.77;18.37;;;;;;;4.62;100.00;91781.94;5088923;28;20250;-74
2023/01/10 08:45:25;;;;;;;27.77;19.67;;;;;;;4.79;100.00;91766.88;5090771;28;20248;-78
2023/01/10 08:47:50;;;;;;;25.23;18.70;;;;;;;4.85;100.00;91769.19;5090629;28;20216;-83
2023/01/10 08:50:16;;;;;;;24.53;19.23;;;;;;;4.81;100.00;91764.78;5089963;28;20263;-76
2023/01/10 08:52:41;;;;;;;23.13;17.87;;;;;;;4.58;100.00;91744.72;5090208;28;20203;-76
2023/01/10 08:55:07;;;;;;;26.97;20.03;;;;;;;4.83;100.00;91760.13;5089314;28;20221;-73
2023/01/10 08:57:33;;;;;;;23.73;19.63;;;;;;;5.06;100.00;91772.47;5090926;28;20201;-75
2023/01/10 08:59:59;;;;;;;23.20;19.40;;;;;;;5.17;100.00;91773.22;5090702;28;20235;-86
2023/01/10 09:02:24;;;;;;;27.57;19.17;;;;;;;5.22;100.00;91783.50;5091369;28;20196;-88
2023/01/10 09:04:49;;;;;;;22.60;18.33;;;;;;;5.19;100.00;91763.34;5090120;28;20245;-77
2023/01/10 09:07:15;;;;;;;21.73;18.33;;;;;;;5.31;100.00;91772.34;5090722;28;20208;-77
2023/01/10 09:09:40;;;;;;;21.43;16.80;;;;;;;5.33;100.00;91756.56;5091450;28;20223;-77
2023/01/10 09:12:53;;;;;;;20.87;17.43;;;;;;;5.41;100.00;91769.72;5087875;28;20330;-77
2023/01/10 09:14:51;;;;;;;21.43;17.57;;;;;;;5.37;100.00;91763.50;5089558;28;20239;-78
2023/01/10 09:17:16;;;;;;;19.93;17.83;;;;;;;5.10;100.00;91742.44;5088727;28;20197;-78
2023/01/10 09:19:42;;;;;;;25.37;23.00;;;;;;;5.44;100.00;91770.97;5089439;28;20233;-80
2023/01/10 09:22:07;;;;;;;22.93;19.60;;;;;;;5.48;100.00;91764.25;5091063;28;20227;-77
2023/01/10 09:24:36;;;;;;;36.87;23.30;;;;;;;5.17;100.00;91768.78;5089333;28;21300;-77
2023/01/10 09:27:01;;;;;;;28.47;19.60;;;;;;;4.90;100.00;91737.38;5089439;28;20320;-78
2023/01/10 09:29:27;;;;;;;21.90;19.17;;;;;;;5.43;100.00;91761.69;5088206;28;20270;-77
2023/01/10 09:31:52;;;;;;;21.97;17.60;;;;;;;5.32;100.00;91752.44;5089363;28;20220;-75
2023/01/10 09:34:18;;;;;;;20.80;17.27;;;;;;;5.23;100.00;91765.13;5087247;28;20315;-75
2023/01/10 09:36:43;;;;;;;18.67;16.87;;;;;;;5.15;100.00;91747.59;5089843;28;20203;-78
2023/01/10 09:39:08;;;;;;;24.47;17.03;;;;;;;5.25;100.00;91749.34;5087136;28;20228;-76
2023/01/10 09:41:47;;;;;;;22.70;15.97;;;;;;;5.13;100.00;91741.91;5089612;28;20200;-76
2023/01/10 09:44:37;;;;;;;16.43;14.83;;;;;;;5.40;100.00;91741.50;5088289;28;21046;-76
2023/01/10 09:47:23;;;;;;;21.47;16.03;;;;;;;5.28;100.00;91734.06;5089418;28;20199;-77
2023/01/10 09:49:48;;;;;;;19.63;16.80;;;;;;;5.42;100.00;91740.19;5089299;28;20220;-76
2023/01/10 09:52:26;;;;;;;20.57;17.17;;;;;;;5.45;100.00;91741.50;5086101;28;20221;-76
2023/01/10 09:54:54;;;;;;;18.83;16.87;;;;;;;5.23;100.00;91733.34;5087581;28;20236;-77
2023/01/10 09:57:22;;;;;;;20.23;15.83;;;;;;;5.29;100.00;91730.47;5089104;28;20224;-77
2023/01/10 09:59:50;;;;;;;17.30;15.60;;;;;;;5.15;100.00;91719.16;5089663;28;20237;-78
2023/01/10 10:02:37;;;;;;;22.63;18.07;;;;;;;5.24;100.00;91717.53;5089819;28;20216;-74
2023/01/10 10:05:16;;;;;;;21.00;17.43;;;;;;;5.32;100.00;91711.81;5089902;28;20291;-73
2023/01/10 10:07:42;;;;;;;24.37;19.87;;;;;;;5.26;100.00;91712.09;5090087;28;20192;-72
2023/01/10 10:10:20;;;;;;;26.73;19.53;;;;;;;5.30;100.00;91715.69;5089354;28;20236;-72
2023/01/10 10:13:10;;;;;;;23.50;18.53;;;;;;;5.15;100.00;91719.16;5090810;28;20242;-73
2023/01/10 10:15:46;;;;;;;34.20;21.93;;;;;;;5.07;100.00;91695.66;5088497;28;20220;-72
2023/01/10 10:18:19;;;;;;;34.47;22.80;;;;;;;5.29;100.00;91708.97;5089748;28;20184;-72
2023/01/10 10:20:51;;;;;;;36.13;23.27;;;;;;;5.28;100.00;91712.59;5089090;28;20228;-72
2023/01/10 10:23:31;;;;;;;38.07;26.20;;;;;;;4.86;100.00;91711.28;5089254;28;20187;-74
2023/01/10 10:26:15;;;;;;;43.93;28.10;;;;;;;4.77;100.00;91710.28;5088431;28;20227;-75
2023/01/10 10:28:54;;;;;;;41.70;27.80;;;;;;;4.66;100.00;91711.34;5090398;28;20184;-74
2023/01/10 10:31:38;;;;;;;40.60;26.73;;;;;;;4.92;100.00;91701.66;5088651;28;20285;-75
2023/01/10 10:34:26;;;;;;;38.43;25.93;;;;;;;4.90;100.00;91690.84;5088460;28;20192;-73
2023/01/10 10:37:14;;;;;;;35.70;25.53;;;;;;;5.09;100.00;91683.22;5088693;28;20245;-73
2023/01/10 10:40:18;;;;;;;33.20;25.77;;;;;;;5.14;100.00;91685.78;5087994;28;20224;-74
2023/01/10 10:42:48;;;;;;;38.03;28.57;;;;;;;5.21;100.00;91673.31;5053834;28;20201;-73
2023/01/10 10:45:19;;;;;;;38.37;25.77;;;;;;;5.22;100.00;91682.63;5084914;28;20228;-74
2023/01/10 10:47:52;;;;;;;41.53;28.60;;;;;;;4.97;100.00;91679.16;5089565;28;20203;-74
2023/01/10 10:50:26;;;;;;;44.23;30.17;;;;;;;5.13;100.00;91679.06;5088721;28;20225;-74
2023/01/10 10:52:51;;;;;;;39.70;28.23;;;;;;;5.17;100.00;91672.31;5088243;28;20207;-74
2023/01/10 10:55:28;;;;;;;37.17;26.53;;;;;;;5.17;100.00;91646.44;5087647;28;20209;-74
2023/01/10 10:57:54;;;;;;;48.90;30.57;;;;;;;5.18;100.00;91677.22;5087363;28;20179;-75
2023/01/10 11:00:21;;;;;;;51.10;34.87;;;;;;;5.31;100.00;91686.19;5089571;28;20232;-74
2023/01/10 11:03:13;;;;;;;44.63;32.77;;;;;;;5.26;100.00;91678.47;5088713;28;20195;-75
2023/01/10 11:05:40;;;;;;;49.27;31.23;;;;;;;5.31;100.00;91676.59;5088834;28;20300;-74
2023/01/10 11:08:12;;;;;;;45.63;32.77;;;;;;;5.37;100.00;91665.19;5088833;28;20242;-74
2023/01/10 11:10:39;;;;;;;54.70;33.07;;;;;;;5.54;100.00;91662.22;5088538;28;20311;-75
2023/01/10 11:13:04;;;;;;;56.80;34.23;;;;;;;5.54;100.00;91659.63;5088630;28;20924;-74
2023/01/10 11:15:40;;;;;;;62.93;34.63;;;;;;;5.40;100.00;91649.09;5089195;28;20235;-75
2023/01/10 11:18:19;;;;;;;56.30;33.00;;;;;;;5.31;100.00;91653.31;5088904;28;20195;-74
2023/01/10 11:21:00;;;;;;;46.53;31.67;;;;;;;5.30;100.00;91648.41;5088432;28;20230;-75
2023/01/10 11:23:55;;;;;;;54.50;33.27;;;;;;;4.84;100.00;91646.13;5088578;28;20180;-75
2023/01/10 11:26:39;;;;;;;61.20;37.63;;;;;;;4.97;100.00;91650.72;5088034;28;20246;-76
2023/01/10 11:29:24;;;;;;;62.87;36.97;;;;;;;5.27;100.00;91649.75;5089162;28;20224;-74
2023/01/10 11:31:50;;;;;;;47.30;33.07;;;;;;;5.48;100.00;91655.53;5088954;28;20212;-73
2023/01/10 11:34:24;;;;;;;53.17;32.07;;;;;;;5.54;100.00;91657.06;5089228;28;20277;-73
2023/01/10 11:36:55;;;;;;;47.60;30.20;;;;;;;5.48;100.00;91655.53;5088811;28;20184;-74